world map with RAJ marked

RAJ - Airport

This information may not be accurate or current and is not valid for navigation or flight planning. No warranty of fitness for any purpose is made or implied.

flag of India

Donate via PayPal

Additional information is available on the NEW Great Circle Mapper

Location
City:  Rajkot, Gujarat, India
ICAO / IATA:VARK / RAJ

Details
Type:Airport (Aerodrome, Airfield)
Latitude:22°18'33"N (22.309183)
Longitude:70°46'46"E (70.779525)
Datum:WGS 1984
Elevation:441 ft (134 m)
Runways:1
Longest:6040 × 148 ft (1841 × 45 m)

Time
Timezone:UTC+5:30 (DST+7:30)
Local Time:

Weather
METAR:VARK  130300Z 11003KT 4000 HZ NSC 15/13 Q1016
TAF:VARK  120500Z 1206/1215 36007KT 5000 HZFU SCT100 BECMG 1212/1214 05008KT 3500 FUHZ FEW080

Related Locations
Nearby:
Farthest:IPC: 12095 mi / 19466 km
Easter Island (Isla de Pascua, Rapa Nui) [Mataveri Intl], VS, CL

Find:

   beyond  
but within

Other Information
Maps:
Sources:

  


 


Great Circle Mapper   Great Circle Mapper
Great Circle Mapper FAQ   Great Circle Mapper FAQ
  Karl's Home Page
KLSē   KLSē Home
   GC on Facebook
Airlines of the World   Airlines of the World
Donate via PayPal


Copyright © 2004-2017, Karl L. Swartz. All rights reserved.
All trademarks mentioned herein belong to their respective owners.

Please see credits for attribution and copyright information.

Karl Swartz <karl@kls2.com>
  Powered by FreeBSD
Valid HTML 4.01!
Labeled with ICRA
hCard Microformat
Geo Microformat